Aeroparque Buenos Aires, Argentina
Current Conditions -  °F | °C
As of 7:00 AM on Thursday 29 Jan 2015 (Local Time) from SABE Reporting Station
Clear Clear  
Wind Chill: 17°   Ceiling: Unl
Heat Index: 17°   Visibility: 6mi
Dew Point: 11°   Wind: 16mph
Humidity: 68%   Direction: 160°SSE
Pressure: 30.03"   Gusts: NA
Location:  34.58°S, 58.43°W
Report Text: SABE 291000Z 16014KT CAVOK 17/11 Q1017
Loading
Personal Weather Stations






























Interactive Weather Map New forecast layout! Learn more

10-Day Weather Forecast

Advertisements
Track Severe Weather on mobile